Time;durP1;ratioP1;P1;durP2;ratioP2;P2;SDS_P1;SDS_P2;PMS_P1;PMS_P2;Temp;Humidity;BMP_temperature;BMP_pressure;BME280_temperature;BME280_humidity;BME280_pressure;Samples;Min_cycle;Max_cycle;Signal;HPM_P1;HPM_P2
2024/01/02 00:01:50;;;;;;;7.07;2.75;;;15.10;82.50;;;;;;4187736;28;20055;-49
2024/01/02 00:04:31;;;;;;;7.72;2.80;;;15.10;82.60;;;;;;4188251;28;20047;-51
2024/01/02 00:07:12;;;;;;;6.47;2.72;;;15.10;82.40;;;;;;4188481;28;20056;-50
2024/01/02 00:09:53;;;;;;;5.13;2.40;;;15.10;83.10;;;;;;4187876;28;20197;-52
2024/01/02 00:12:34;;;;;;;7.05;3.10;;;15.20;82.10;;;;;;4171737;28;20744;-51
2024/01/02 00:15:15;;;;;;;10.50;2.30;;;15.20;81.80;;;;;;4169427;28;20519;-50
2024/01/02 00:17:58;;;;;;;7.28;2.60;;;15.30;81.60;;;;;;4154769;28;20119;-48
2024/01/02 00:20:39;;;;;;;9.68;2.25;;;15.20;81.40;;;;;;4170351;28;20155;-49
2024/01/02 00:23:20;;;;;;;7.88;2.33;;;15.20;81.40;;;;;;4155552;28;20072;-50
2024/01/02 00:26:01;;;;;;;9.05;2.47;;;15.20;81.50;;;;;;4170711;28;20502;-50
2024/01/02 00:28:42;;;;;;;6.63;2.10;;;15.20;81.50;;;;;;4170690;28;20658;-50
2024/01/02 00:31:23;;;;;;;5.90;2.17;;;15.20;81.50;;;;;;4176736;28;20079;-54
2024/01/02 00:34:05;;;;;;;3.17;2.00;;;15.20;81.50;;;;;;4171625;28;20044;-51
2024/01/02 00:36:46;;;;;;;5.55;2.45;;;15.20;81.50;;;;;;4177346;28;20055;-49
2024/01/02 00:39:27;;;;;;;5.22;1.95;;;15.20;81.40;;;;;;4168757;28;20075;-48
2024/01/02 00:42:08;;;;;;;9.43;2.95;;;15.20;81.20;;;;;;4170704;28;20495;-50
2024/01/02 00:44:50;;;;;;;7.00;2.30;;;15.30;81.50;;;;;;4170987;28;20515;-50
2024/01/02 00:47:32;;;;;;;10.52;2.20;;;15.30;81.30;;;;;;4169979;28;20063;-48
2024/01/02 00:50:14;;;;;;;3.78;1.83;;;15.40;81.20;;;;;;4156432;28;20087;-50
2024/01/02 00:52:55;;;;;;;7.05;1.92;;;15.40;81.00;;;;;;4154213;28;20087;-51
2024/01/02 00:55:36;;;;;;;4.80;2.13;;;15.40;81.00;;;;;;4152859;28;20114;-52
2024/01/02 00:58:17;;;;;;;6.45;1.90;;;15.40;80.90;;;;;;4169625;28;20531;-51
2024/01/02 01:00:59;;;;;;;4.47;2.03;;;15.40;81.00;;;;;;4169586;28;20048;-48
2024/01/02 01:03:40;;;;;;;4.28;1.60;;;15.40;81.10;;;;;;4171753;28;20055;-50
2024/01/02 01:06:22;;;;;;;6.00;1.70;;;15.40;81.10;;;;;;4153735;28;20539;-51
2024/01/02 01:09:04;;;;;;;5.50;1.77;;;15.50;80.90;;;;;;4170461;28;20060;-48
2024/01/02 01:11:45;;;;;;;5.85;1.98;;;15.50;80.60;;;;;;4185993;28;20411;-50
2024/01/02 01:14:26;;;;;;;5.10;2.00;;;15.60;80.60;;;;;;4170549;28;20187;-50
2024/01/02 01:17:09;;;;;;;5.65;2.42;;;15.60;80.60;;;;;;4170520;28;20186;-38
2024/01/02 01:19:49;;;;;;;5.25;1.70;;;15.60;80.50;;;;;;4171506;28;20056;-38
2024/01/02 01:22:32;;;;;;;7.53;1.92;;;15.70;80.10;;;;;;4187245;28;20141;-38
2024/01/02 01:25:13;;;;;;;3.20;1.63;;;15.80;80.00;;;;;;4183777;28;20411;-38
2024/01/02 01:27:54;;;;;;;2.95;1.25;;;15.80;79.80;;;;;;4177442;28;20512;-38
2024/01/02 01:30:35;;;;;;;2.28;1.20;;;15.80;79.50;;;;;;4186838;28;20051;-38
2024/01/02 01:33:16;;;;;;;1.67;1.10;;;15.80;79.50;;;;;;4185896;28;20546;-38
2024/01/02 01:35:57;;;;;;;3.97;1.30;;;15.80;79.50;;;;;;4185920;28;20051;-48
2024/01/02 01:38:39;;;;;;;1.90;1.27;;;15.90;79.70;;;;;;4187308;28;20046;-49
2024/01/02 01:41:21;;;;;;;2.65;1.20;;;15.90;79.50;;;;;;4187133;28;20063;-48
2024/01/02 01:44:02;;;;;;;3.13;1.00;;;16.00;79.30;;;;;;4176099;28;20137;-48
2024/01/02 01:46:43;;;;;;;2.63;1.10;;;16.00;79.00;;;;;;4154145;28;20496;-52
2024/01/02 01:49:24;;;;;;;;;;;16.00;79.00;;;;;;4169585;28;20503;-48
2024/01/02 01:52:07;;;;;;;2.42;1.33;;;16.00;79.10;;;;;;4170823;28;19931;-49
2024/01/02 01:54:49;;;;;;;4.05;1.40;;;16.00;78.90;;;;;;4170449;28;20093;-49
2024/01/02 01:57:30;;;;;;;2.55;1.10;;;16.00;78.40;;;;;;4153703;28;20061;-47
2024/01/02 02:00:12;;;;;;;3.10;1.50;;;16.00;78.40;;;;;;4180186;28;20553;-49
2024/01/02 02:02:53;;;;;;;2.97;1.42;;;16.10;78.70;;;;;;4186996;28;20043;-47
2024/01/02 02:05:36;;;;;;;2.65;1.20;;;16.00;78.50;;;;;;4185496;28;20055;-52
2024/01/02 02:08:17;;;;;;;4.88;1.70;;;16.00;78.40;;;;;;4187239;28;20052;-48
2024/01/02 02:11:00;;;;;;;4.55;1.52;;;16.00;78.30;;;;;;4183581;28;20052;-50
2024/01/02 02:13:42;;;;;;;5.43;1.40;;;16.00;78.20;;;;;;4182953;28;20088;-49
2024/01/02 02:16:23;;;;;;;3.83;1.42;;;16.00;78.20;;;;;;4177103;28;20134;-50
2024/01/02 02:19:04;;;;;;;4.63;1.40;;;16.00;78.40;;;;;;4176799;28;20122;-48
2024/01/02 02:21:48;;;;;;;5.28;1.23;;;16.00;78.20;;;;;;4185464;28;20522;-48
2024/01/02 02:24:31;;;;;;;5.68;1.75;;;16.00;78.00;;;;;;4173996;28;20056;-47
2024/01/02 02:27:14;;;;;;;3.97;1.83;;;16.10;77.90;;;;;;4157014;28;20071;-50
2024/01/02 02:29:55;;;;;;;5.07;1.85;;;16.10;77.60;;;;;;4170622;28;20051;-53
2024/01/02 02:32:36;;;;;;;6.00;1.58;;;16.10;78.30;;;;;;4168230;28;20059;-51
2024/01/02 02:35:18;;;;;;;4.13;1.70;;;16.20;77.10;;;;;;4171300;28;20048;-49
2024/01/02 02:37:59;;;;;;;2.15;1.40;;;16.20;76.80;;;;;;4169331;28;20102;-49
2024/01/02 02:40:42;;;;;;;2.50;1.55;;;16.20;76.70;;;;;;4186879;28;20134;-50
2024/01/02 02:43:23;;;;;;;3.90;1.55;;;16.20;76.70;;;;;;4184377;28;20056;-49
2024/01/02 02:46:04;;;;;;;4.47;2.13;;;16.20;76.80;;;;;;4173066;28;20110;-48
2024/01/02 02:48:45;;;;;;;4.55;1.67;;;16.10;77.10;;;;;;4171331;28;20060;-49
2024/01/02 02:51:26;;;;;;;4.40;2.45;;;16.20;77.10;;;;;;4172238;28;20055;-52
2024/01/02 02:54:07;;;;;;;7.20;4.15;;;16.10;76.70;;;;;;4187320;28;20051;-49
2024/01/02 02:56:49;;;;;;;7.93;4.90;;;16.20;77.50;;;;;;4189605;28;20071;-54
2024/01/02 02:59:30;;;;;;;12.02;6.93;;;16.20;76.50;;;;;;4162529;28;20060;-49
2024/01/02 03:02:10;;;;;;;11.27;7.22;;;16.10;76.60;;;;;;4173167;28;20052;-51
2024/01/02 03:04:51;;;;;;;7.82;4.00;;;16.10;76.70;;;;;;4172788;28;20552;-53
2024/01/02 03:07:33;;;;;;;7.65;3.40;;;16.10;76.70;;;;;;4172922;28;20060;-48
2024/01/02 03:10:17;;;;;;;6.70;2.63;;;16.20;76.60;;;;;;4172605;28;20060;-52
2024/01/02 03:13:01;;;;;;;8.30;2.22;;;16.10;76.60;;;;;;4179175;28;20056;-50
2024/01/02 03:15:41;;;;;;;5.32;2.33;;;16.10;76.50;;;;;;4181088;28;20163;-51
2024/01/02 03:18:22;;;;;;;7.13;2.53;;;16.10;76.50;;;;;;4172940;28;20099;-53
2024/01/02 03:21:04;;;;;;;4.00;2.35;;;16.10;76.70;;;;;;4171729;28;20056;-48
2024/01/02 03:23:45;;;;;;;6.63;2.13;;;16.10;76.80;;;;;;4171911;28;20052;-50
2024/01/02 03:26:26;;;;;;;6.30;2.17;;;16.20;76.40;;;;;;4155077;28;20183;-51
2024/01/02 03:29:08;;;;;;;8.05;2.75;;;16.20;76.20;;;;;;4161285;28;20126;-51
2024/01/02 03:31:49;;;;;;;8.90;2.00;;;16.20;76.00;;;;;;4171539;28;20578;-51
2024/01/02 03:34:30;;;;;;;5.03;2.47;;;16.20;76.20;;;;;;4171543;28;20673;-49
2024/01/02 03:37:13;;;;;;;4.53;2.17;;;16.10;76.30;;;;;;4171880;28;20484;-53
2024/01/02 03:39:54;;;;;;;3.97;1.80;;;16.10;76.50;;;;;;4172243;28;20068;-53
2024/01/02 03:42:35;;;;;;;6.35;1.77;;;16.10;76.60;;;;;;4154340;28;20060;-48
2024/01/02 03:45:17;;;;;;;2.67;1.85;;;16.10;76.80;;;;;;4175107;28;20117;-48
2024/01/02 03:47:58;;;;;;;3.97;1.92;;;16.20;76.60;;;;;;4168694;28;20056;-46
2024/01/02 03:50:39;;;;;;;4.28;1.90;;;16.20;76.00;;;;;;4172043;28;20125;-49
2024/01/02 03:53:20;;;;;;;3.35;1.92;;;16.20;75.50;;;;;;4171285;28;20127;-47
2024/01/02 03:56:02;;;;;;;6.30;1.63;;;16.30;75.70;;;;;;4172015;28;20159;-52
2024/01/02 03:58:43;;;;;;;4.38;1.63;;;16.30;76.60;;;;;;4170972;28;20051;-48
2024/01/02 04:01:25;;;;;;;4.30;1.30;;;16.20;76.60;;;;;;4156833;28;20056;-50
2024/01/02 04:04:06;;;;;;;2.17;1.13;;;16.20;75.80;;;;;;4171615;28;20051;-50
2024/01/02 04:06:47;;;;;;;5.30;1.65;;;16.20;76.90;;;;;;4172122;28;20186;-47
2024/01/02 04:09:28;;;;;;;8.18;2.13;;;16.10;76.30;;;;;;4164621;28;20051;-49
2024/01/02 04:12:09;;;;;;;3.42;1.23;;;16.10;76.20;;;;;;4171980;28;20052;-49
2024/01/02 04:14:50;;;;;;;4.78;1.27;;;16.10;75.90;;;;;;4176444;28;20055;-50
2024/01/02 04:17:33;;;;;;;3.80;1.20;;;16.10;75.80;;;;;;4188278;28;20059;-50
2024/01/02 04:20:14;;;;;;;6.35;1.50;;;16.10;75.70;;;;;;4170546;28;20126;-50
2024/01/02 04:22:55;;;;;;;1.92;1.30;;;16.10;75.70;;;;;;4169728;28;20060;-48
2024/01/02 04:25:36;;;;;;;;;;;16.10;75.70;;;;;;4156583;28;20385;-49
2024/01/02 04:28:17;;;;;;;2.00;1.33;;;16.10;76.00;;;;;;4169944;28;19956;-53
2024/01/02 04:30:59;;;;;;;3.10;1.20;;;16.00;76.10;;;;;;4153190;28;20049;-47
2024/01/02 04:33:42;;;;;;;2.83;1.13;;;16.00;75.90;;;;;;4170473;28;20734;-50
2024/01/02 04:36:25;;;;;;;4.88;2.08;;;16.10;75.70;;;;;;4167371;28;20064;-53
2024/01/02 04:39:06;;;;;;;2.95;1.15;;;16.10;75.50;;;;;;4186239;28;20051;-52
2024/01/02 04:41:47;;;;;;;3.45;1.60;;;16.20;75.20;;;;;;4181274;28;20079;-52
2024/01/02 04:44:28;;;;;;;;;;;16.20;74.90;;;;;;4154961;28;20064;-49
2024/01/02 04:47:09;;;;;;;1.73;1.37;;;16.20;74.70;;;;;;4171260;28;20382;-50
2024/01/02 04:49:52;;;;;;;2.35;1.25;;;16.20;74.50;;;;;;4170900;28;20060;-48
2024/01/02 04:52:33;;;;;;;2.90;1.38;;;16.20;74.70;;;;;;4171276;28;20117;-48
2024/01/02 04:55:14;;;;;;;2.40;1.10;;;16.10;74.60;;;;;;4171524;28;20064;-47
2024/01/02 04:57:54;;;;;;;3.50;1.27;;;16.10;75.00;;;;;;4170795;28;20120;-49
2024/01/02 05:00:36;;;;;;;2.25;1.30;;;16.10;75.30;;;;;;4171057;28;20389;-48
2024/01/02 05:03:17;;;;;;;0.85;0.73;;;16.10;75.40;;;;;;4170371;28;20404;-49
2024/01/02 05:05:59;;;;;;;1.42;1.15;;;16.10;75.30;;;;;;4172458;28;20052;-52
2024/01/02 05:08:40;;;;;;;3.40;1.35;;;16.10;75.70;;;;;;4172190;28;20078;-51
2024/01/02 05:11:21;;;;;;;3.10;1.00;;;16.10;75.60;;;;;;4187178;28;20119;-52
2024/01/02 05:14:03;;;;;;;3.10;0.98;;;16.00;75.70;;;;;;4166604;28;20056;-51
2024/01/02 05:16:44;;;;;;;2.42;0.90;;;16.00;76.10;;;;;;4170533;28;20739;-46
2024/01/02 05:19:25;;;;;;;4.00;1.10;;;16.00;76.10;;;;;;4171682;28;20060;-47
2024/01/02 05:22:07;;;;;;;1.73;0.88;;;16.10;76.00;;;;;;4186875;28;20071;-47
2024/01/02 05:24:48;;;;;;;2.88;0.85;;;16.10;75.80;;;;;;4186322;28;20055;-50
2024/01/02 05:27:31;;;;;;;3.88;0.82;;;16.20;75.50;;;;;;4170554;28;20106;-51
2024/01/02 05:30:13;;;;;;;1.58;0.88;;;16.10;75.50;;;;;;4170357;28;20052;-51
2024/01/02 05:32:54;;;;;;;3.08;1.08;;;16.20;75.50;;;;;;4186004;28;20047;-48
2024/01/02 05:35:34;;;;;;;2.13;0.85;;;16.20;75.40;;;;;;4169751;28;20044;-49
2024/01/02 05:38:17;;;;;;;1.67;0.70;;;16.10;75.40;;;;;;4170276;28;20124;-51
2024/01/02 05:40:58;;;;;;;2.17;1.25;;;16.10;75.60;;;;;;4186028;28;20070;-50
2024/01/02 05:43:39;;;;;;;4.20;0.90;;;16.10;75.70;;;;;;4187280;28;20175;-50
2024/01/02 05:46:20;;;;;;;1.92;0.93;;;16.00;75.70;;;;;;4187202;28;21134;-52
2024/01/02 05:49:02;;;;;;;4.57;1.13;;;16.00;75.90;;;;;;4172390;28;20056;-52
2024/01/02 05:51:43;;;;;;;0.35;0.35;;;16.00;76.10;;;;;;4156865;28;20503;-53
2024/01/02 05:54:26;;;;;;;0.93;0.50;;;15.90;76.20;;;;;;4153753;28;20102;-52
2024/01/02 05:57:06;;;;;;;0.35;0.35;;;15.80;76.60;;;;;;4176931;28;20610;-49
2024/01/02 05:59:47;;;;;;;1.38;0.93;;;15.80;76.90;;;;;;4187036;28;20102;-51
2024/01/02 06:02:28;;;;;;;1.52;0.80;;;15.80;77.00;;;;;;4170584;28;20119;-49
2024/01/02 06:05:10;;;;;;;0.63;0.50;;;15.80;76.90;;;;;;4171696;28;20183;-47
2024/01/02 06:07:51;;;;;;;1.15;0.50;;;15.80;77.20;;;;;;4186796;28;20048;-50
2024/01/02 06:10:33;;;;;;;1.23;0.60;;;15.80;77.10;;;;;;4186621;28;20063;-50
2024/01/02 06:13:15;;;;;;;0.40;0.40;;;15.80;76.90;;;;;;4186028;28;20071;-48
2024/01/02 06:15:56;;;;;;;0.40;0.40;;;15.80;76.80;;;;;;4186782;28;20047;-49
2024/01/02 06:18:36;;;;;;;1.17;0.73;;;15.80;77.10;;;;;;4186541;28;20063;-50
2024/01/02 06:21:18;;;;;;;;;;;15.90;76.90;;;;;;4173114;28;20538;-51
2024/01/02 06:23:59;;;;;;;1.20;0.80;;;15.90;76.80;;;;;;4188906;28;20010;-54
2024/01/02 06:26:41;;;;;;;0.75;0.60;;;15.90;77.20;;;;;;4173676;28;20059;-53
2024/01/02 06:29:22;;;;;;;0.43;0.40;;;16.00;76.40;;;;;;4176059;28;20064;-47
2024/01/02 06:32:05;;;;;;;0.30;0.20;;;16.00;76.00;;;;;;4186123;28;20097;-49
2024/01/02 06:34:47;;;;;;;0.50;0.50;;;16.00;76.00;;;;;;4188987;28;20618;-49
2024/01/02 06:37:28;;;;;;;0.65;0.40;;;16.00;75.90;;;;;;4179903;28;20059;-52
2024/01/02 06:40:10;;;;;;;0.60;0.30;;;16.10;76.00;;;;;;4171249;28;20052;-52
2024/01/02 06:42:53;;;;;;;0.55;0.30;;;16.10;76.40;;;;;;4170889;28;20186;-51
2024/01/02 06:45:34;;;;;;;0.40;0.40;;;16.00;75.90;;;;;;4166330;28;20409;-53
2024/01/02 06:48:15;;;;;;;0.45;0.40;;;16.00;76.30;;;;;;4171860;28;20183;-54
2024/01/02 06:50:56;;;;;;;1.65;0.38;;;15.90;76.30;;;;;;4185637;28;20112;-50
2024/01/02 06:53:37;;;;;;;1.38;0.30;;;15.90;76.60;;;;;;4189118;28;20055;-53
2024/01/02 06:56:19;;;;;;;0.43;0.28;;;15.80;76.60;;;;;;4176842;28;20055;-54
2024/01/02 06:59:00;;;;;;;;;;;15.70;77.70;;;;;;4184515;28;20175;-52
2024/01/02 07:01:41;;;;;;;0.10;0.10;;;15.70;77.30;;;;;;4189098;28;20394;-50
2024/01/02 07:04:22;;;;;;;0.20;0.20;;;15.60;77.60;;;;;;4173102;28;20056;-49
2024/01/02 07:07:03;;;;;;;0.57;0.57;;;15.50;77.80;;;;;;4174097;28;20051;-49
2024/01/02 07:09:44;;;;;;;0.20;0.20;;;15.50;78.10;;;;;;4169079;28;20048;-53
2024/01/02 07:12:25;;;;;;;0.30;0.30;;;15.50;79.00;;;;;;4187188;28;20153;-48
2024/01/02 07:15:08;;;;;;;0.95;0.28;;;15.50;78.00;;;;;;4186709;28;20063;-48
2024/01/02 07:17:49;;;;;;;0.25;0.25;;;15.50;78.00;;;;;;4154848;28;20060;-54
2024/01/02 07:20:30;;;;;;;0.60;0.30;;;15.60;78.10;;;;;;4170390;28;20060;-49
2024/01/02 07:23:10;;;;;;;0.20;0.20;;;15.60;77.90;;;;;;4170525;28;20060;-51
2024/01/02 07:25:52;;;;;;;0.40;0.30;;;15.70;77.60;;;;;;4170309;28;20056;-50
2024/01/02 07:28:33;;;;;;;0.20;0.20;;;15.80;77.10;;;;;;4185610;28;20155;-49
2024/01/02 07:31:15;;;;;;;1.80;0.25;;;15.90;76.70;;;;;;4187671;28;20151;-48
2024/01/02 07:33:56;;;;;;;0.30;0.30;;;16.00;76.40;;;;;;4186911;28;20082;-48
2024/01/02 07:36:37;;;;;;;0.35;0.35;;;16.00;75.70;;;;;;4186061;28;20395;-51
2024/01/02 07:39:18;;;;;;;0.68;0.40;;;16.10;75.50;;;;;;4187283;28;20507;-49
2024/01/02 07:41:59;;;;;;;0.98;0.40;;;16.10;75.30;;;;;;4184648;28;20440;-53
2024/01/02 07:44:41;;;;;;;0.30;0.30;;;16.10;75.20;;;;;;4169891;28;20098;-53
2024/01/02 07:47:24;;;;;;;0.60;0.30;;;16.00;75.40;;;;;;4166496;28;20076;-50
2024/01/02 07:50:07;;;;;;;0.25;0.25;;;15.90;76.20;;;;;;4169370;28;20743;-49
2024/01/02 07:52:48;;;;;;;1.15;0.30;;;15.90;76.80;;;;;;4166530;28;20060;-51
2024/01/02 07:55:29;;;;;;;1.02;0.50;;;16.00;76.70;;;;;;4170388;28;20056;-53
2024/01/02 07:58:10;;;;;;;1.08;0.47;;;16.00;76.70;;;;;;4166169;28;20087;-50
2024/01/02 08:00:51;;;;;;;0.80;0.30;;;16.00;76.90;;;;;;4167843;28;20060;-49
2024/01/02 08:03:34;;;;;;;0.30;0.30;;;16.10;76.90;;;;;;4166236;28;20071;-50
2024/01/02 08:06:15;;;;;;;0.20;0.20;;;16.20;76.70;;;;;;4166732;28;20082;-52
2024/01/02 08:08:56;;;;;;;0.50;0.50;;;16.30;76.60;;;;;;4174958;28;20048;-55
2024/01/02 08:11:38;;;;;;;0.28;0.28;;;16.30;76.40;;;;;;4177588;28;20055;-49
2024/01/02 08:14:19;;;;;;;2.10;0.35;;;16.30;76.50;;;;;;4166296;28;20408;-52
2024/01/02 08:17:00;;;;;;;0.40;0.30;;;16.30;76.70;;;;;;4172978;28;20102;-49
2024/01/02 08:19:42;;;;;;;1.20;0.30;;;16.30;77.00;;;;;;4171068;28;20059;-53
2024/01/02 08:22:24;;;;;;;0.30;0.30;;;16.30;77.10;;;;;;4178219;28;20721;-51
2024/01/02 08:25:05;;;;;;;0.20;0.20;;;16.40;77.20;;;;;;4166641;28;20508;-48
2024/01/02 08:27:47;;;;;;;0.30;0.30;;;16.30;77.20;;;;;;4179297;28;20063;-47
2024/01/02 08:30:28;;;;;;;0.25;0.25;;;16.30;77.40;;;;;;4165619;28;20068;-48
2024/01/02 08:33:08;;;;;;;0.40;0.40;;;16.40;77.70;;;;;;4171366;28;20495;-53
2024/01/02 08:35:51;;;;;;;0.30;0.30;;;16.40;77.70;;;;;;4167126;28;20198;-50
2024/01/02 08:38:35;;;;;;;0.40;0.40;;;16.50;77.60;;;;;;4176616;28;20401;-54
2024/01/02 08:41:16;;;;;;;0.85;0.50;;;16.50;77.60;;;;;;4178417;28;20098;-52
2024/01/02 08:43:57;;;;;;;0.85;0.40;;;16.50;77.50;;;;;;4169533;28;20158;-48
2024/01/02 08:46:38;;;;;;;0.38;0.38;;;16.60;77.40;;;;;;4172468;28;20056;-49
2024/01/02 08:49:19;;;;;;;0.40;0.40;;;16.60;77.20;;;;;;4175929;28;20139;-49
2024/01/02 08:52:01;;;;;;;0.40;0.40;;;16.60;77.20;;;;;;4180191;28;20063;-51
2024/01/02 08:54:43;;;;;;;0.50;0.50;;;16.60;77.20;;;;;;4178219;28;20051;-48
2024/01/02 08:57:24;;;;;;;0.50;0.50;;;16.60;77.30;;;;;;4168568;28;20064;-48
2024/01/02 09:00:07;;;;;;;0.50;0.50;;;16.60;77.40;;;;;;4175985;28;20059;-50
2024/01/02 09:02:48;;;;;;;0.55;0.55;;;16.60;77.60;;;;;;4184065;28;20087;-54
2024/01/02 09:05:29;;;;;;;0.57;0.57;;;16.60;77.70;;;;;;4170974;28;20067;-49
2024/01/02 09:08:12;;;;;;;1.02;0.90;;;16.60;77.70;;;;;;4171469;28;20060;-52
2024/01/02 09:10:54;;;;;;;2.25;1.08;;;16.60;77.60;;;;;;4184287;28;20199;-51
2024/01/02 09:13:36;;;;;;;0.80;0.80;;;16.60;77.50;;;;;;4167551;28;20136;-50
2024/01/02 09:16:18;;;;;;;1.48;0.88;;;16.50;77.60;;;;;;4170009;28;20063;-51
2024/01/02 09:18:59;;;;;;;0.77;0.77;;;16.40;77.70;;;;;;4183887;28;20512;-48
2024/01/02 09:21:40;;;;;;;0.93;0.93;;;16.40;77.90;;;;;;4167430;28;20159;-48
2024/01/02 09:24:23;;;;;;;1.85;0.90;;;16.30;78.10;;;;;;4167691;28;20099;-50
2024/01/02 09:27:08;;;;;;;1.00;0.90;;;16.30;78.40;;;;;;4166535;28;20047;-50
2024/01/02 09:29:49;;;;;;;1.30;1.00;;;16.20;78.70;;;;;;4166676;28;20064;-48
2024/01/02 09:32:30;;;;;;;2.60;1.05;;;16.10;80.00;;;;;;4169649;28;20052;-38
2024/01/02 09:35:11;;;;;;;2.45;1.20;;;16.10;79.30;;;;;;4166996;28;21015;-38
2024/01/02 09:37:53;;;;;;;4.05;1.30;;;16.00;79.50;;;;;;4175168;28;20060;-38
2024/01/02 09:40:56;;;;;;;6.93;1.65;;;15.90;79.60;;;;;;4178851;28;20059;-38
2024/01/02 09:43:48;;;;;;;2.85;1.55;;;15.90;80.00;;;;;;4174505;28;20404;-38
2024/01/02 09:46:39;;;;;;;5.32;1.63;;;15.80;80.20;;;;;;4167035;28;20098;-39
2024/01/02 09:49:27;;;;;;;3.80;1.70;;;15.80;80.70;;;;;;4166291;28;20126;-37
2024/01/02 09:52:32;;;;;;;3.72;1.60;;;15.70;80.90;;;;;;4166836;28;20047;-39
2024/01/02 09:55:20;;;;;;;4.97;1.60;;;15.70;81.70;;;;;;4186687;28;20047;-40
2024/01/02 09:58:15;;;;;;;8.75;2.00;;;15.70;82.20;;;;;;4170153;28;20048;-40
2024/01/02 10:01:07;;;;;;;3.45;1.40;;;15.70;81.90;;;;;;4178426;28;20407;-39
2024/01/02 10:04:23;;;;;;;5.13;1.50;;;15.60;81.80;;;;;;4184221;28;20051;-40
2024/01/02 10:07:24;;;;;;;8.60;1.63;;;15.60;82.20;;;;;;4185501;28;20047;-40
2024/01/02 10:10:11;;;;;;;10.18;2.00;;;15.50;82.40;;;;;;4185823;28;20423;-40
2024/01/02 10:13:10;;;;;;;5.40;1.27;;;15.50;82.70;;;;;;4184790;28;20051;-39
2024/01/02 10:16:03;;;;;;;8.20;2.30;;;15.40;83.00;;;;;;4177480;28;20400;-39
2024/01/02 10:18:59;;;;;;;5.22;1.42;;;15.40;83.20;;;;;;4171695;28;20106;-41
2024/01/02 10:21:46;;;;;;;8.45;1.73;;;15.40;83.40;;;;;;4183138;28;20087;-40
2024/01/02 10:24:37;;;;;;;10.98;1.60;;;15.40;84.50;;;;;;4183816;28;21020;-40
2024/01/02 10:27:33;;;;;;;11.10;1.90;;;15.30;83.80;;;;;;4169718;28;20064;-40
2024/01/02 10:30:20;;;;;;;7.32;1.35;;;15.30;83.90;;;;;;4177205;28;20056;-39
2024/01/02 10:33:11;;;;;;;4.70;1.60;;;15.30;84.00;;;;;;4173383;28;20067;-40
2024/01/02 10:35:54;;;;;;;6.70;1.67;;;15.20;84.20;;;;;;4171944;28;20040;-40
2024/01/02 10:38:48;;;;;;;9.95;1.98;;;15.20;84.40;;;;;;4170560;28;20121;-40
2024/01/02 10:41:45;;;;;;;5.63;2.28;;;15.20;84.80;;;;;;4185336;28;20047;-40
2024/01/02 10:44:38;;;;;;;9.65;1.60;;;15.20;84.80;;;;;;4185376;28;20149;-40
2024/01/02 10:47:35;;;;;;;5.32;1.60;;;15.30;84.80;;;;;;4168025;28;20056;-39
2024/01/02 10:50:23;;;;;;;8.45;1.70;;;15.30;84.90;;;;;;4184661;28;20577;-40
2024/01/02 10:53:16;;;;;;;7.55;1.60;;;15.40;84.90;;;;;;4182840;28;20097;-40
2024/01/02 10:56:05;;;;;;;10.38;2.15;;;15.40;85.00;;;;;;4171796;28;20064;-40
2024/01/02 10:58:59;;;;;;;14.23;3.63;;;15.50;85.10;;;;;;4173448;28;20064;-40
2024/01/02 11:01:44;;;;;;;10.95;4.13;;;15.50;85.20;;;;;;4183445;28;20166;-40
2024/01/02 11:04:37;;;;;;;17.95;6.45;;;15.50;85.10;;;;;;4178155;28;20147;-40
2024/01/02 11:07:22;;;;;;;23.10;6.68;;;15.50;85.00;;;;;;4175534;28;20110;-40
2024/01/02 11:10:09;;;;;;;21.63;8.20;;;15.60;84.80;;;;;;4173109;28;20134;-41
2024/01/02 11:12:56;;;;;;;23.85;8.32;;;15.60;84.60;;;;;;4174302;28;20048;-41
2024/01/02 11:15:42;;;;;;;24.15;6.70;;;15.60;84.50;;;;;;4169340;28;20184;-40
2024/01/02 11:18:27;;;;;;;21.15;7.85;;;15.60;84.40;;;;;;4170418;28;20161;-40
2024/01/02 11:21:14;;;;;;;23.60;7.00;;;15.60;84.50;;;;;;4172444;28;20118;-41
2024/01/02 11:24:02;;;;;;;21.63;6.10;;;15.60;84.50;;;;;;4174545;28;20067;-40
2024/01/02 11:26:44;;;;;;;18.80;5.30;;;15.60;84.50;;;;;;4169326;28;20079;-40
2024/01/02 11:29:29;;;;;;;17.02;4.95;;;15.50;84.50;;;;;;4180964;28;20403;-49
2024/01/02 11:32:15;;;;;;;16.10;3.80;;;15.50;84.60;;;;;;4170994;28;20114;-40
2024/01/02 11:35:05;;;;;;;13.82;3.70;;;15.50;84.70;;;;;;4166076;28;20115;-40
2024/01/02 11:37:59;;;;;;;10.32;3.22;;;15.50;84.90;;;;;;4173730;28;21595;-40
2024/01/02 11:40:52;;;;;;;11.52;3.83;;;15.40;85.00;;;;;;4169045;28;20506;-41
2024/01/02 11:43:43;;;;;;;15.40;4.15;;;15.40;85.10;;;;;;4176159;28;20095;-40
2024/01/02 11:46:25;;;;;;;11.85;3.17;;;15.40;85.20;;;;;;4172765;28;20083;-43
2024/01/02 11:49:12;;;;;;;11.23;3.65;;;15.40;85.30;;;;;;4169724;28;20055;-40
2024/01/02 11:51:58;;;;;;;10.98;3.08;;;15.40;85.50;;;;;;4168444;28;20060;-40
2024/01/02 11:54:48;;;;;;;13.35;3.45;;;15.30;85.60;;;;;;4185129;28;20097;-40
2024/01/02 11:57:47;;;;;;;8.57;3.60;;;15.30;85.70;;;;;;4168661;28;20190;-40
2024/01/02 12:00:35;;;;;;;11.85;3.45;;;15.30;85.90;;;;;;4167641;28;20746;-40
2024/01/02 12:03:27;;;;;;;12.68;3.30;;;15.30;85.90;;;;;;4185893;28;20395;-40
2024/01/02 12:06:18;;;;;;;17.13;3.45;;;15.30;86.00;;;;;;4180092;28;20052;-40
2024/01/02 12:09:09;;;;;;;10.80;2.33;;;15.20;85.90;;;;;;4172203;28;20052;-40
2024/01/02 12:12:00;;;;;;;10.25;2.65;;;15.20;85.80;;;;;;4182881;28;21066;-39
2024/01/02 12:14:54;;;;;;;13.32;3.60;;;15.20;85.80;;;;;;4168248;28;20079;-41
2024/01/02 12:17:42;;;;;;;19.38;3.20;;;15.20;85.90;;;;;;4182533;28;20059;-39
2024/01/02 12:20:25;;;;;;;12.27;3.03;;;15.10;86.00;;;;;;4193512;28;20067;-39
2024/01/02 12:23:07;;;;;;;12.63;2.38;;;15.20;86.20;;;;;;4172441;28;20052;-39
2024/01/02 12:25:49;;;;;;;9.82;2.42;;;15.10;86.30;;;;;;4173343;28;20091;-39
2024/01/02 12:28:33;;;;;;;7.43;2.22;;;15.10;86.50;;;;;;4170938;28;20082;-39
2024/01/02 12:31:33;;;;;;;12.73;2.30;;;15.10;86.60;;;;;;4181758;28;20093;-39
2024/01/02 12:34:23;;;;;;;9.05;2.05;;;15.10;86.80;;;;;;4174147;28;20407;-39
2024/01/02 12:37:14;;;;;;;7.28;2.13;;;15.10;86.80;;;;;;4183025;28;20089;-39
2024/01/02 12:40:02;;;;;;;15.20;2.78;;;15.10;87.90;;;;;;4167528;28;20055;-39
2024/01/02 12:42:50;;;;;;;16.92;3.33;;;15.10;88.40;;;;;;4178759;28;20064;-39
2024/01/02 12:45:33;;;;;;;9.55;2.58;;;15.20;88.90;;;;;;4169590;28;20139;-39
2024/01/02 12:48:21;;;;;;;15.25;3.25;;;15.20;89.20;;;;;;4168682;28;20060;-39
2024/01/02 12:51:06;;;;;;;8.52;3.03;;;15.30;89.40;;;;;;4182873;28;20059;-39
2024/01/02 12:53:51;;;;;;;11.25;3.10;;;15.20;89.60;;;;;;4176033;28;20186;-49
2024/01/02 12:56:32;;;;;;;15.15;2.55;;;15.30;89.80;;;;;;4182669;28;20079;-49
2024/01/02 12:59:14;;;;;;;11.43;2.38;;;15.30;89.90;;;;;;4170791;28;20059;-50
2024/01/02 13:01:57;;;;;;;7.15;2.30;;;15.40;89.90;;;;;;4167896;28;20400;-50
2024/01/02 13:04:40;;;;;;;9.48;2.20;;;15.40;89.80;;;;;;4183368;28;20150;-51
2024/01/02 13:07:21;;;;;;;7.60;2.67;;;15.50;89.70;;;;;;4172220;28;20052;-50
2024/01/02 13:10:02;;;;;;;18.25;3.03;;;15.50;90.20;;;;;;4168288;28;20082;-38
2024/01/02 13:12:44;;;;;;;10.18;2.88;;;15.50;89.80;;;;;;4183161;28;20052;-39
2024/01/02 13:15:25;;;;;;;11.88;2.53;;;15.50;90.00;;;;;;4183342;28;20059;-39
2024/01/02 13:18:08;;;;;;;12.65;2.75;;;15.50;90.00;;;;;;4167346;28;20182;-39
2024/01/02 13:20:51;;;;;;;12.68;3.88;;;15.50;90.00;;;;;;4167404;28;20098;-39
2024/01/02 13:23:32;;;;;;;8.95;2.80;;;15.50;90.00;;;;;;4167838;28;20099;-38
2024/01/02 13:26:14;;;;;;;15.32;3.20;;;15.50;90.00;;;;;;4174352;28;20047;-39
2024/01/02 13:28:55;;;;;;;13.57;2.97;;;15.50;90.00;;;;;;4182977;28;20097;-38
2024/01/02 13:31:37;;;;;;;12.68;3.03;;;15.60;90.10;;;;;;4173926;28;20067;-39
2024/01/02 13:34:26;;;;;;;10.90;3.00;;;15.60;90.10;;;;;;4180679;28;20091;-38
2024/01/02 13:37:08;;;;;;;14.95;2.90;;;15.50;90.10;;;;;;4181409;28;20772;-39
2024/01/02 13:39:50;;;;;;;11.65;3.08;;;15.50;90.20;;;;;;4171279;28;20103;-39
2024/01/02 13:42:33;;;;;;;14.85;3.05;;;15.50;90.20;;;;;;4167863;28;20043;-39
2024/01/02 13:45:24;;;;;;;14.60;3.05;;;15.50;90.60;;;;;;4181740;28;20086;-39
2024/01/02 13:48:09;;;;;;;12.52;2.90;;;15.50;90.30;;;;;;4166660;28;20491;-40
2024/01/02 13:50:52;;;;;;;15.63;3.15;;;15.50;90.30;;;;;;4179296;28;20101;-39
2024/01/02 13:53:54;;;;;;;17.75;4.18;;;15.40;90.40;;;;;;4172817;28;20067;-39
2024/01/02 13:56:36;;;;;;;17.08;3.35;;;15.40;90.50;;;;;;4170463;28;20924;-39
2024/01/02 13:59:18;;;;;;;13.18;3.85;;;15.30;90.50;;;;;;4178174;28;20070;-38
2024/01/02 14:02:03;;;;;;;13.02;3.42;;;15.30;90.70;;;;;;4182257;28;20079;-39
2024/01/02 14:04:47;;;;;;;11.07;2.53;;;15.30;90.80;;;;;;4164599;28;20056;-50
2024/01/02 14:07:30;;;;;;;14.30;3.00;;;15.40;90.80;;;;;;4171929;28;20114;-52
2024/01/02 14:10:11;;;;;;;21.23;3.35;;;15.40;90.70;;;;;;4168321;28;20055;-49